createdAt,value
2019-01-25T00:00:11.582Z,-3.59
2019-01-25T00:05:07.874Z,-3.61
2019-01-25T00:10:07.102Z,-3.44
2019-01-25T00:15:09.047Z,-3.15
2019-01-25T00:20:07.690Z,-3.23
2019-01-25T00:25:04.276Z,-3.09
2019-01-25T00:30:00.224Z,-3.28
2019-01-25T00:34:56.107Z,-3.31
2019-01-25T00:39:51.993Z,-3.38
2019-01-25T00:44:48.600Z,-3.34
2019-01-25T00:49:44.845Z,-3.29
2019-01-25T00:54:40.746Z,-3.29
2019-01-25T00:59:36.632Z,-3.34
2019-01-25T01:04:32.652Z,-3.46
2019-01-25T01:09:28.549Z,-3.31
2019-01-25T01:14:25.968Z,-3.37
2019-01-25T01:19:22.016Z,-3.42
2019-01-25T01:24:17.922Z,-2.88
2019-01-25T01:29:13.837Z,-3.26
2019-01-25T01:34:09.733Z,-3.29
2019-01-25T01:39:06.035Z,-3.26
2019-01-25T01:44:11.406Z,-3.31
2019-01-25T01:49:07.309Z,-2.92
2019-01-25T01:54:03.308Z,-2.53
2019-01-25T01:58:59.200Z,-2.52
2019-01-25T02:03:55.102Z,-2.71
2019-01-25T02:08:50.998Z,-3.26
2019-01-25T02:13:46.902Z,-3.18
2019-01-25T02:18:42.795Z,-3.33
2019-01-25T02:23:38.685Z,-3.37
2019-01-25T02:28:34.577Z,-3.20
2019-01-25T02:33:30.461Z,-3.10
2019-01-25T02:38:26.355Z,-3.09
2019-01-25T02:43:22.245Z,-3.01
2019-01-25T02:48:18.114Z,-3.00
2019-01-25T02:53:14.013Z,-2.48
2019-01-25T02:58:09.909Z,-2.95
2019-01-25T03:03:05.796Z,-2.39
2019-01-25T03:08:01.913Z,-2.83
2019-01-25T03:12:57.809Z,-2.86
2019-01-25T03:17:53.808Z,-3.09
2019-01-25T03:22:49.820Z,-2.59
2019-01-25T03:27:45.804Z,-2.59
2019-01-25T03:32:41.703Z,-2.75
2019-01-25T03:37:37.607Z,-2.76
2019-01-25T03:42:33.497Z,-2.86
2019-01-25T03:47:29.397Z,-2.78
2019-01-25T03:52:25.282Z,-2.94
2019-01-25T03:57:21.199Z,-2.72
2019-01-25T04:02:17.212Z,-2.62
2019-01-25T04:07:13.234Z,-2.90
2019-01-25T04:12:09.158Z,-2.52
2019-01-25T04:17:05.253Z,-2.58
2019-01-25T04:22:01.150Z,-2.85
2019-01-25T04:26:57.144Z,-3.07
2019-01-25T04:31:53.232Z,-2.94
2019-01-25T04:36:49.330Z,-3.04
2019-01-25T04:41:45.252Z,-3.03
2019-01-25T04:46:41.147Z,-2.75
2019-01-25T04:51:37.055Z,-2.65
2019-01-25T04:56:36.008Z,-2.79
2019-01-25T05:01:32.397Z,-2.64
2019-01-25T05:06:28.298Z,-2.67
2019-01-25T05:11:24.315Z,-2.76
2019-01-25T05:16:20.236Z,-2.95
2019-01-25T05:21:41.452Z,-2.78
2019-01-25T05:26:37.376Z,-2.89
2019-01-25T05:31:33.268Z,-2.82
2019-01-25T05:36:29.165Z,-3.05
2019-01-25T05:41:28.606Z,-3.04
2019-01-25T05:46:22.867Z,-2.89
2019-01-25T05:51:18.770Z,-3.01
2019-01-25T05:56:14.668Z,-2.91
2019-01-25T06:01:10.553Z,-2.90
2019-01-25T06:06:06.927Z,-3.04
2019-01-25T06:11:05.774Z,-3.17
2019-01-25T06:16:01.921Z,-2.83
2019-01-25T06:20:57.997Z,-2.95
2019-01-25T06:25:55.794Z,-2.75
2019-01-25T06:30:52.190Z,-2.84
2019-01-25T06:35:48.089Z,-2.86
2019-01-25T06:40:44.000Z,-2.85
2019-01-25T06:45:39.995Z,-2.75
2019-01-25T06:50:35.910Z,-2.77
2019-01-25T06:55:31.803Z,-2.72
2019-01-25T07:00:46.294Z,-2.83
2019-01-25T07:05:42.192Z,-2.69
2019-01-25T07:10:38.243Z,-2.85
2019-01-25T07:15:34.145Z,-2.82
2019-01-25T07:20:30.034Z,-2.94
2019-01-25T07:25:26.173Z,-2.99
2019-01-25T07:30:22.183Z,-2.89
2019-01-25T07:35:18.091Z,-2.97
2019-01-25T07:40:13.975Z,-2.87
2019-01-25T07:45:11.475Z,-2.91
2019-01-25T07:50:09.380Z,-2.92
2019-01-25T07:55:09.550Z,-3.00
2019-01-25T08:00:12.238Z,-3.07
2019-01-25T08:05:11.014Z,-2.98
2019-01-25T08:10:21.535Z,-3.10
2019-01-25T08:15:19.854Z,-3.11
2019-01-25T08:20:15.856Z,-2.96
2019-01-25T08:25:11.961Z,-2.90
2019-01-25T08:30:11.339Z,-3.02
2019-01-25T08:35:08.934Z,-2.70
2019-01-25T08:40:08.351Z,-2.80
2019-01-25T08:45:08.149Z,-2.63
2019-01-25T08:50:07.907Z,-2.66
2019-01-25T08:55:04.132Z,-2.69
2019-01-25T09:00:03.441Z,-2.49
2019-01-25T09:04:59.343Z,-2.55
2019-01-25T09:09:57.961Z,-2.51
2019-01-25T09:14:54.660Z,-2.30
2019-01-25T09:19:51.981Z,-2.19
2019-01-25T09:24:49.371Z,-2.19
2019-01-25T09:29:45.274Z,-2.11
2019-01-25T09:34:42.023Z,-1.90
2019-01-25T09:39:37.928Z,-2.04
2019-01-25T09:44:39.573Z,-2.09
2019-01-25T09:49:37.304Z,-2.16
2019-01-25T09:54:34.436Z,-2.07
2019-01-25T09:59:31.697Z,-1.70
2019-01-25T10:04:28.448Z,-1.82
2019-01-25T10:09:25.409Z,-1.79
2019-01-25T10:14:23.741Z,-1.89
2019-01-25T10:19:19.739Z,-1.51
2019-01-25T10:24:15.636Z,-1.49
2019-01-25T10:29:12.044Z,-1.56
2019-01-25T10:34:08.143Z,-1.68
2019-01-25T10:39:05.837Z,-1.55
2019-01-25T10:44:05.460Z,-1.60
2019-01-25T10:49:01.461Z,-1.55
2019-01-25T10:53:57.387Z,-1.49
2019-01-25T10:58:53.294Z,-1.79
2019-01-25T11:03:49.185Z,-1.47
2019-01-25T11:08:45.238Z,-1.44
2019-01-25T11:13:41.138Z,-1.18
2019-01-25T11:18:37.162Z,-1.40
2019-01-25T11:23:33.073Z,-1.39
2019-01-25T11:28:28.966Z,-1.45
2019-01-25T11:33:24.862Z,-1.65
2019-01-25T11:38:20.760Z,-1.51
2019-01-25T11:43:16.655Z,-1.41
2019-01-25T11:48:12.910Z,-1.37
2019-01-25T11:53:08.829Z,-1.38
2019-01-25T11:58:04.900Z,-1.38
2019-01-25T12:03:00.802Z,-1.19
2019-01-25T12:07:56.737Z,-1.06
2019-01-25T12:12:52.759Z,-1.29
2019-01-25T12:17:48.782Z,-1.12
2019-01-25T12:22:44.669Z,-0.94
2019-01-25T12:27:40.571Z,-1.03
2019-01-25T12:32:36.503Z,-0.74
2019-01-25T12:37:34.476Z,-0.99
2019-01-25T12:42:30.623Z,-1.15
2019-01-25T12:47:26.525Z,-1.15
2019-01-25T12:52:22.429Z,-1.12
2019-01-25T12:57:18.325Z,-1.04
2019-01-25T13:02:14.218Z,-0.80
2019-01-25T13:07:10.241Z,-0.90
2019-01-25T13:12:06.172Z,-1.03
2019-01-25T13:17:02.067Z,-1.11
2019-01-25T13:21:58.019Z,-1.18
2019-01-25T13:26:53.886Z,-1.08
2019-01-25T13:31:49.883Z,-0.79
2019-01-25T13:36:46.076Z,-0.92
2019-01-25T13:41:42.178Z,-0.68
2019-01-25T13:46:39.228Z,-0.61
2019-01-25T13:51:35.327Z,-0.48
2019-01-25T13:56:31.237Z,-0.56
2019-01-25T14:01:34.366Z,-0.56
2019-01-25T14:06:25.178Z,-0.57
2019-01-25T14:11:21.905Z,-0.52
2019-01-25T14:16:17.923Z,-0.36
2019-01-25T14:21:13.839Z,-0.36
2019-01-25T14:26:09.835Z,-0.51
2019-01-25T14:31:05.750Z,-0.49
2019-01-25T14:36:01.641Z,-0.36
2019-01-25T14:40:57.532Z,-0.36
2019-01-25T14:45:57.405Z,-0.36
2019-01-25T14:50:53.375Z,-0.32
2019-01-25T14:55:49.307Z,-0.25
2019-01-25T15:00:45.201Z,-0.39
2019-01-25T15:05:41.094Z,-0.12
2019-01-25T15:10:37.025Z,-0.12
2019-01-25T15:15:33.122Z,0.01
2019-01-25T15:20:29.026Z,-0.03
2019-01-25T15:25:25.202Z,-0.19
2019-01-25T15:30:27.019Z,-0.15
2019-01-25T15:35:23.870Z,-0.02
2019-01-25T15:40:20.797Z,-0.17
2019-01-25T15:45:18.396Z,-0.12
2019-01-25T15:50:20.306Z,-0.08
2019-01-25T15:55:18.571Z,-0.21
2019-01-25T16:00:41.627Z,-0.07
2019-01-25T16:05:37.897Z,-0.02
2019-01-25T16:10:33.960Z,-0.05
2019-01-25T16:15:30.069Z,-0.02
2019-01-25T16:20:26.094Z,0.09
2019-01-25T16:25:24.685Z,-0.11
2019-01-25T16:30:25.832Z,0.00
2019-01-25T16:35:21.907Z,0.20
2019-01-25T16:40:20.514Z,0.13
2019-01-25T16:45:22.398Z,0.17
2019-01-25T16:50:23.645Z,0.10
2019-01-25T16:55:16.621Z,-0.08
2019-01-25T17:00:28.667Z,0.04
2019-01-25T17:05:25.109Z,0.07
2019-01-25T17:10:21.278Z,0.08
2019-01-25T17:15:17.392Z,0.44
2019-01-25T17:20:21.453Z,0.35
2019-01-25T17:25:17.298Z,0.41
2019-01-25T17:30:31.272Z,0.46
2019-01-25T17:35:27.558Z,0.32
2019-01-25T17:40:32.728Z,0.35
2019-01-25T17:45:29.282Z,0.33
2019-01-25T17:50:25.305Z,0.51
2019-01-25T17:55:21.354Z,0.43
2019-01-25T18:00:27.652Z,0.33
2019-01-25T18:05:23.667Z,0.37
2019-01-25T18:10:21.954Z,0.35
2019-01-25T18:15:18.787Z,0.52
2019-01-25T18:20:16.570Z,0.62
2019-01-25T18:25:19.345Z,0.54
2019-01-25T18:30:31.155Z,0.68
2019-01-25T18:35:27.157Z,0.73
2019-01-25T18:40:23.086Z,0.67
2019-01-25T18:45:19.085Z,0.56
2019-01-25T18:50:15.203Z,0.77
2019-01-25T18:55:14.329Z,0.77
2019-01-25T19:00:13.733Z,0.81
2019-01-25T19:05:09.750Z,0.87
2019-01-25T19:10:20.604Z,0.97
2019-01-25T19:15:19.772Z,0.98
2019-01-25T19:20:16.101Z,1.05
2019-01-25T19:25:12.130Z,1.10
2019-01-25T19:30:20.577Z,1.09
2019-01-25T19:35:16.806Z,1.13
2019-01-25T19:40:18.835Z,1.04
2019-01-25T19:45:15.557Z,1.20
2019-01-25T19:50:14.997Z,1.28
2019-01-25T19:55:14.121Z,1.26
2019-01-25T20:00:19.054Z,1.31
2019-01-25T20:05:18.686Z,1.28
2019-01-25T20:10:15.441Z,1.32
2019-01-25T20:15:19.566Z,1.27
2019-01-25T20:20:17.819Z,1.44
2019-01-25T20:25:14.949Z,1.35
2019-01-25T20:30:14.975Z,1.37
2019-01-25T20:35:14.395Z,1.47
2019-01-25T20:40:13.092Z,1.42
2019-01-25T20:45:12.964Z,1.56
2019-01-25T20:50:12.276Z,1.40
2019-01-25T20:55:14.531Z,1.52
2019-01-25T21:00:14.164Z,1.56
2019-01-25T21:05:10.064Z,1.59
2019-01-25T21:10:09.403Z,1.56
2019-01-25T21:15:08.818Z,1.48
2019-01-25T21:20:11.027Z,1.48
2019-01-25T21:25:07.137Z,1.67
2019-01-25T21:30:09.819Z,1.72
2019-01-25T21:35:07.781Z,1.57
2019-01-25T21:40:08.609Z,1.49
2019-01-25T21:45:09.478Z,1.53
2019-01-25T21:50:09.090Z,1.87
2019-01-25T21:55:08.312Z,1.84
2019-01-25T22:00:14.023Z,1.66
2019-01-25T22:05:10.331Z,1.91
2019-01-25T22:10:18.029Z,1.89
2019-01-25T22:15:15.946Z,2.04
2019-01-25T22:20:17.452Z,1.94
2019-01-25T22:25:13.896Z,2.05
2019-01-25T22:30:16.011Z,2.09
2019-01-25T22:35:12.011Z,2.05
2019-01-25T22:40:17.135Z,2.01
2019-01-25T22:45:16.219Z,2.05
2019-01-25T22:50:20.449Z,2.04
2019-01-25T22:55:18.059Z,2.14
2019-01-25T23:00:22.542Z,2.07
2019-01-25T23:05:33.816Z,2.29
2019-01-25T23:10:29.789Z,2.36
2019-01-25T23:15:25.708Z,2.08
2019-01-25T23:20:21.725Z,2.39
2019-01-25T23:25:17.641Z,2.28
2019-01-25T23:30:14.122Z,2.56
2019-01-25T23:35:10.124Z,2.60
2019-01-25T23:40:07.554Z,2.61
2019-01-25T23:45:05.607Z,2.54
2019-01-25T23:50:02.690Z,2.70
2019-01-25T23:54:58.587Z,2.74
2019-01-25T23:59:54.510Z,2.91
